createdAt,value
2023-03-28T00:00:29.500Z,0.71
2023-03-28T00:03:01.640Z,0.62
2023-03-28T00:05:33.370Z,0.38
2023-03-28T00:08:05.121Z,0.37
2023-03-28T00:10:37.370Z,0.44
2023-03-28T00:13:09.128Z,0.55
2023-03-28T00:15:42.615Z,0.69
2023-03-28T00:18:15.072Z,0.46
2023-03-28T00:20:45.804Z,0.55
2023-03-28T00:23:18.038Z,0.54
2023-03-28T00:25:50.022Z,0.68
2023-03-28T00:28:22.019Z,0.64
2023-03-28T00:30:53.974Z,0.48
2023-03-28T00:33:26.005Z,0.42
2023-03-28T00:35:59.011Z,0.23
2023-03-28T00:38:33.256Z,0.12
2023-03-28T00:41:07.228Z,-0.04
2023-03-28T00:43:43.691Z,0.00
2023-03-28T00:46:22.284Z,0.09
2023-03-28T00:48:58.277Z,0.12
2023-03-28T00:51:34.397Z,0.23
2023-03-28T00:54:08.603Z,0.07
2023-03-28T00:56:42.329Z,-0.11
2023-03-28T00:59:19.862Z,-0.34
2023-03-28T01:01:52.660Z,-0.19
2023-03-28T01:04:27.080Z,-0.02
2023-03-28T01:06:59.828Z,0.01
2023-03-28T01:09:33.464Z,-0.12
2023-03-28T01:12:05.654Z,-0.22
2023-03-28T01:14:40.501Z,-0.28
2023-03-28T01:17:14.189Z,-0.41
2023-03-28T01:20:00.103Z,-0.51
2023-03-28T01:22:58.018Z,-0.53
2023-03-28T01:25:57.594Z,-0.38
2023-03-28T01:28:39.082Z,-0.37
2023-03-28T01:31:32.363Z,-0.36
2023-03-28T01:34:45.781Z,-0.38
2023-03-28T01:37:43.377Z,-0.36
2023-03-28T01:40:39.253Z,-0.32
2023-03-28T01:43:13.702Z,-0.35
2023-03-28T01:45:52.380Z,-0.55
2023-03-28T01:48:58.771Z,-1.04
2023-03-28T01:51:51.799Z,-1.12
2023-03-28T01:54:35.713Z,-1.13
2023-03-28T01:57:15.248Z,-1.30
2023-03-28T01:59:55.585Z,-1.30
2023-03-28T02:02:40.676Z,-1.47
2023-03-28T02:05:18.130Z,-1.68
2023-03-28T02:07:53.046Z,-1.89
2023-03-28T02:10:28.511Z,-1.80
2023-03-28T02:13:05.996Z,-1.85
2023-03-28T02:15:43.014Z,-2.00
2023-03-28T02:18:21.450Z,-2.00
2023-03-28T02:21:01.719Z,-1.94
2023-03-28T02:23:41.224Z,-2.01
2023-03-28T02:26:13.630Z,-2.12
2023-03-28T02:28:46.837Z,-2.14
2023-03-28T02:31:19.191Z,-2.19
2023-03-28T02:33:52.501Z,-2.25
2023-03-28T02:36:45.471Z,-2.29
2023-03-28T02:39:20.540Z,-2.29
2023-03-28T02:42:10.328Z,-2.25
2023-03-28T02:44:51.285Z,-2.29
2023-03-28T02:47:36.040Z,-2.33
2023-03-28T02:50:35.259Z,-2.33
2023-03-28T02:53:18.834Z,-2.35
2023-03-28T02:56:08.796Z,-2.31
2023-03-28T02:58:59.043Z,-2.28
2023-03-28T03:01:32.175Z,-2.26
2023-03-28T03:04:04.098Z,-2.14
2023-03-28T03:06:37.544Z,-2.06
2023-03-28T03:09:08.896Z,-1.99
2023-03-28T03:11:43.033Z,-2.02
2023-03-28T03:14:14.657Z,-2.03
2023-03-28T03:16:46.710Z,-2.03
2023-03-28T03:19:20.681Z,-2.05
2023-03-28T03:21:53.138Z,-2.05
2023-03-28T03:24:25.990Z,-1.96
2023-03-28T03:27:01.891Z,-1.91
2023-03-28T03:29:38.969Z,-1.88
2023-03-28T03:32:17.228Z,-1.80
2023-03-28T03:34:49.322Z,-1.71
2023-03-28T03:37:21.618Z,-1.64
2023-03-28T03:39:52.880Z,-1.58
2023-03-28T03:42:30.334Z,-1.50
2023-03-28T03:45:01.946Z,-1.45
2023-03-28T03:47:35.101Z,-1.43
2023-03-28T03:50:08.346Z,-1.41
2023-03-28T03:52:40.975Z,-1.36
2023-03-28T03:55:12.326Z,-1.29
2023-03-28T03:57:44.458Z,-1.25
2023-03-28T04:00:15.722Z,-1.12
2023-03-28T04:02:51.367Z,-1.01
2023-03-28T04:05:24.119Z,-0.89
2023-03-28T04:08:02.550Z,-0.76
2023-03-28T04:10:35.254Z,-0.62
2023-03-28T04:13:06.646Z,-0.53
2023-03-28T04:15:38.970Z,-0.46
2023-03-28T04:18:12.815Z,-0.41
2023-03-28T04:20:44.402Z,-0.31
2023-03-28T04:23:21.707Z,-0.25
2023-03-28T04:26:01.095Z,-0.21
2023-03-28T04:28:41.004Z,-0.29
2023-03-28T04:31:13.283Z,-0.08
2023-03-28T04:34:06.241Z,-0.02
2023-03-28T04:36:39.007Z,0.03
2023-03-28T04:39:10.836Z,0.05
2023-03-28T04:41:42.462Z,0.14
2023-03-28T04:44:15.944Z,0.15
2023-03-28T04:46:49.678Z,0.28
2023-03-28T04:49:22.228Z,0.37
2023-03-28T04:51:55.636Z,0.43
2023-03-28T04:54:28.338Z,0.53
2023-03-28T04:57:06.101Z,0.73
2023-03-28T04:59:40.427Z,0.75
2023-03-28T05:02:12.406Z,0.91
2023-03-28T05:04:45.077Z,1.02
2023-03-28T05:07:17.830Z,1.29
2023-03-28T05:09:50.771Z,1.47
2023-03-28T05:12:22.858Z,1.52
2023-03-28T05:14:55.969Z,1.62
2023-03-28T05:17:28.147Z,1.73
2023-03-28T05:20:00.317Z,1.89
2023-03-28T05:22:35.203Z,2.17
2023-03-28T05:25:09.134Z,2.28
2023-03-28T05:27:42.575Z,2.40
2023-03-28T05:30:15.689Z,2.50
2023-03-28T05:32:47.720Z,2.63
2023-03-28T05:35:20.210Z,2.83
2023-03-28T05:37:52.803Z,3.23
2023-03-28T05:40:24.237Z,3.12
2023-03-28T05:42:56.588Z,3.50
2023-03-28T05:45:28.993Z,4.06
2023-03-28T05:48:01.103Z,4.49
2023-03-28T05:50:33.071Z,4.52
2023-03-28T05:53:04.548Z,4.97
2023-03-28T05:55:36.736Z,5.26
2023-03-28T05:58:09.012Z,4.79
2023-03-28T06:00:39.932Z,5.26
2023-03-28T06:03:16.577Z,6.04
2023-03-28T06:05:50.186Z,6.52
2023-03-28T06:08:22.584Z,7.00
2023-03-28T06:10:54.636Z,7.33
2023-03-28T06:13:27.190Z,7.67
2023-03-28T06:15:58.688Z,7.88
2023-03-28T06:18:32.798Z,8.08
2023-03-28T06:21:04.983Z,8.19
2023-03-28T06:23:36.660Z,8.37
2023-03-28T06:26:22.863Z,8.54
2023-03-28T06:28:53.990Z,7.76
2023-03-28T06:31:24.488Z,8.72
2023-03-28T06:33:55.313Z,9.47
2023-03-28T06:36:27.250Z,9.32
2023-03-28T06:38:59.182Z,9.35
2023-03-28T06:41:31.527Z,9.33
2023-03-28T06:44:04.230Z,9.18
2023-03-28T06:46:38.578Z,10.45
2023-03-28T06:49:09.940Z,10.81
2023-03-28T06:51:42.110Z,10.96
2023-03-28T06:54:14.053Z,10.67
2023-03-28T06:56:47.050Z,11.24
2023-03-28T06:59:18.797Z,11.44
2023-03-28T07:01:51.847Z,11.46
2023-03-28T07:04:22.630Z,11.55
2023-03-28T07:06:54.488Z,11.57
2023-03-28T07:09:25.786Z,11.59
2023-03-28T07:11:58.695Z,11.63
2023-03-28T07:14:30.540Z,11.24
2023-03-28T07:17:02.178Z,11.27
2023-03-28T07:19:34.839Z,11.25
2023-03-28T07:22:05.500Z,11.59
2023-03-28T07:24:39.555Z,10.82
2023-03-28T07:27:15.562Z,11.15
2023-03-28T07:29:48.442Z,11.45
2023-03-28T07:32:19.322Z,11.96
2023-03-28T07:34:51.622Z,11.37
2023-03-28T07:37:23.835Z,11.51
2023-03-28T07:39:57.704Z,11.99
2023-03-28T07:42:30.220Z,12.24
2023-03-28T07:45:01.296Z,11.70
2023-03-28T07:47:34.015Z,11.47
2023-03-28T07:50:06.829Z,12.21
2023-03-28T07:52:38.857Z,12.35
2023-03-28T07:55:09.913Z,12.61
2023-03-28T07:57:41.957Z,12.12
2023-03-28T08:00:14.453Z,11.67
2023-03-28T08:02:48.728Z,10.45
2023-03-28T08:05:19.784Z,12.27
2023-03-28T08:07:50.696Z,12.07
2023-03-28T08:10:22.538Z,11.97
2023-03-28T08:12:55.059Z,10.84
2023-03-28T08:15:27.025Z,12.01
2023-03-28T08:17:59.344Z,11.96
2023-03-28T08:20:30.805Z,10.63
2023-03-28T08:23:04.864Z,11.41
2023-03-28T08:25:40.835Z,12.75
2023-03-28T08:28:12.924Z,13.09
2023-03-28T08:30:43.656Z,11.98
2023-03-28T08:33:14.613Z,11.97
2023-03-28T08:35:45.876Z,11.74
2023-03-28T08:38:19.395Z,10.76
2023-03-28T08:41:02.641Z,12.13
2023-03-28T08:43:46.549Z,12.30
2023-03-28T08:46:22.825Z,12.16
2023-03-28T08:48:57.238Z,13.17
2023-03-28T08:51:32.714Z,14.19
2023-03-28T08:54:09.356Z,14.22
2023-03-28T08:56:47.545Z,14.01
2023-03-28T08:59:23.442Z,13.72
2023-03-28T09:01:54.778Z,14.70
2023-03-28T09:04:38.694Z,15.03
2023-03-28T09:07:22.597Z,16.10
2023-03-28T09:10:21.652Z,15.17
2023-03-28T09:13:03.747Z,16.17
2023-03-28T09:15:43.596Z,15.86
2023-03-28T09:18:20.627Z,15.28
2023-03-28T09:21:07.522Z,14.91
2023-03-28T09:24:05.989Z,17.57
2023-03-28T09:26:46.195Z,17.82
2023-03-28T09:29:22.425Z,17.78
2023-03-28T09:32:01.264Z,16.79
2023-03-28T09:34:39.115Z,16.43
2023-03-28T09:37:20.271Z,16.61
2023-03-28T09:39:54.017Z,15.65
2023-03-28T09:42:47.969Z,15.07
2023-03-28T09:45:43.735Z,17.20
2023-03-28T09:48:33.861Z,16.57
2023-03-28T09:51:07.694Z,15.91
2023-03-28T09:53:40.410Z,17.50
2023-03-28T09:56:35.329Z,16.65
2023-03-28T09:59:24.162Z,17.71
2023-03-28T10:01:57.654Z,17.17
2023-03-28T10:04:38.957Z,16.14
2023-03-28T10:07:20.221Z,14.15
2023-03-28T10:09:56.019Z,14.52
2023-03-28T10:12:37.291Z,16.42
2023-03-28T10:15:28.926Z,16.89
2023-03-28T10:18:08.970Z,17.49
2023-03-28T10:20:43.148Z,16.60
2023-03-28T10:23:15.953Z,17.05
2023-03-28T10:25:52.303Z,18.23
2023-03-28T10:28:32.854Z,17.86
2023-03-28T10:31:07.233Z,18.52
2023-03-28T10:33:45.160Z,18.87
2023-03-28T10:36:30.570Z,19.15
2023-03-28T10:39:21.222Z,19.29
2023-03-28T10:41:56.535Z,17.01
2023-03-28T10:44:32.814Z,17.11
2023-03-28T10:47:08.224Z,18.85
2023-03-28T10:49:48.353Z,18.84
2023-03-28T10:52:48.394Z,18.58
2023-03-28T10:55:27.630Z,16.73
2023-03-28T10:58:06.785Z,18.19
2023-03-28T11:00:42.534Z,17.24
2023-03-28T11:03:26.681Z,17.05
2023-03-28T11:06:09.472Z,16.82
2023-03-28T11:08:59.615Z,16.25
2023-03-28T11:11:54.943Z,16.23
2023-03-28T11:14:37.981Z,16.00
2023-03-28T11:17:32.035Z,17.97
2023-03-28T11:20:30.126Z,17.26
2023-03-28T11:23:25.068Z,17.83
2023-03-28T11:26:23.469Z,18.66
2023-03-28T11:29:13.421Z,18.18
2023-03-28T11:32:17.422Z,15.87
2023-03-28T11:34:59.076Z,18.40
2023-03-28T11:37:33.916Z,18.02
2023-03-28T11:40:31.600Z,19.06
2023-03-28T11:43:07.734Z,16.65
2023-03-28T11:45:52.703Z,16.24
2023-03-28T11:48:25.638Z,17.10
2023-03-28T11:51:22.258Z,17.32
2023-03-28T11:54:02.248Z,17.39
2023-03-28T11:56:54.783Z,15.82
2023-03-28T11:59:53.607Z,16.65
2023-03-28T12:02:42.756Z,16.24
2023-03-28T12:05:26.857Z,16.84
2023-03-28T12:08:05.609Z,15.87
2023-03-28T12:10:39.543Z,15.53
2023-03-28T12:13:46.061Z,16.62
2023-03-28T12:16:26.923Z,14.93
2023-03-28T12:19:02.638Z,15.14
2023-03-28T12:21:44.702Z,15.39
2023-03-28T12:24:44.110Z,15.96
2023-03-28T12:27:41.254Z,16.05
2023-03-28T12:30:33.713Z,16.57
2023-03-28T12:33:26.844Z,16.48
2023-03-28T12:36:18.703Z,16.52
2023-03-28T12:39:05.632Z,16.90
2023-03-28T12:41:41.454Z,16.26
2023-03-28T12:44:23.126Z,16.67
2023-03-28T12:47:03.023Z,17.39
2023-03-28T12:49:53.158Z,17.27
2023-03-28T12:52:27.340Z,17.69
2023-03-28T12:55:02.322Z,18.18
2023-03-28T12:57:45.172Z,18.75
2023-03-28T13:00:35.361Z,18.58
2023-03-28T13:03:36.664Z,18.91
2023-03-28T13:06:38.260Z,18.68
2023-03-28T13:09:25.052Z,18.73
2023-03-28T13:12:09.661Z,19.13
2023-03-28T13:14:42.775Z,19.33
2023-03-28T13:17:35.845Z,19.38
2023-03-28T13:20:22.185Z,19.27
2023-03-28T13:23:02.984Z,19.63
2023-03-28T13:25:36.911Z,19.83
2023-03-28T13:28:30.815Z,19.89
2023-03-28T13:31:09.044Z,19.81
2023-03-28T13:33:48.084Z,19.87
2023-03-28T13:36:24.463Z,20.13
2023-03-28T13:39:10.998Z,20.08
2023-03-28T13:41:44.948Z,19.93
2023-03-28T13:44:17.845Z,20.08
2023-03-28T13:46:51.463Z,20.61
2023-03-28T13:49:45.267Z,20.99
2023-03-28T13:52:17.248Z,21.06
2023-03-28T13:54:54.899Z,21.03
2023-03-28T13:57:27.829Z,20.54
2023-03-28T14:00:02.377Z,20.52
2023-03-28T14:02:47.584Z,20.29
2023-03-28T14:05:25.145Z,19.89
2023-03-28T14:08:02.550Z,20.03
2023-03-28T14:10:35.975Z,19.99
2023-03-28T14:13:13.069Z,19.78
2023-03-28T14:15:45.996Z,19.74
2023-03-28T14:18:22.810Z,19.78
2023-03-28T14:20:57.593Z,19.96
2023-03-28T14:23:37.861Z,19.80
2023-03-28T14:26:23.494Z,19.48
2023-03-28T14:28:59.152Z,18.91
2023-03-28T14:31:34.330Z,18.87
2023-03-28T14:34:25.602Z,18.83
2023-03-28T14:37:00.276Z,18.81
2023-03-28T14:39:36.021Z,18.83
2023-03-28T14:42:09.699Z,18.84
2023-03-28T14:44:46.216Z,18.37
2023-03-28T14:47:28.153Z,17.48
2023-03-28T14:50:01.368Z,16.67
2023-03-28T14:52:42.122Z,16.78
2023-03-28T14:55:21.088Z,15.97
2023-03-28T14:57:55.699Z,14.38
2023-03-28T15:00:36.675Z,13.56
2023-03-28T15:03:14.931Z,13.78
2023-03-28T15:05:50.375Z,13.12
2023-03-28T15:08:40.103Z,13.46
2023-03-28T15:11:33.659Z,12.60
2023-03-28T15:14:31.322Z,12.48
2023-03-28T15:17:03.280Z,13.02
2023-03-28T15:22:28.945Z,14.22
2023-03-28T15:25:01.491Z,14.44
2023-03-28T15:27:36.691Z,14.55
2023-03-28T15:30:16.010Z,14.40
2023-03-28T15:32:49.274Z,14.40
2023-03-28T15:35:40.158Z,14.27
2023-03-28T15:38:21.695Z,14.00
2023-03-28T15:41:06.403Z,13.52
2023-03-28T15:44:00.213Z,12.77
2023-03-28T15:46:35.148Z,12.16
2023-03-28T15:49:07.457Z,11.50
2023-03-28T15:51:58.210Z,10.82
2023-03-28T15:54:32.409Z,10.89
2023-03-28T15:57:04.293Z,10.87
2023-03-28T15:59:40.497Z,10.34
2023-03-28T16:02:32.639Z,10.54
2023-03-28T16:05:09.046Z,10.36
2023-03-28T16:07:48.537Z,10.22
2023-03-28T16:10:22.675Z,9.94
2023-03-28T16:13:00.506Z,9.97
2023-03-28T16:15:33.449Z,10.01
2023-03-28T16:18:05.704Z,9.98
2023-03-28T16:20:37.407Z,9.98
2023-03-28T16:23:09.421Z,9.79
2023-03-28T16:25:42.823Z,9.56
2023-03-28T16:28:21.135Z,9.37
2023-03-28T16:30:54.326Z,9.40
2023-03-28T16:33:26.681Z,9.15
2023-03-28T16:35:59.674Z,9.05
2023-03-28T16:38:31.177Z,8.69
2023-03-28T16:41:03.659Z,8.89
2023-03-28T16:43:35.499Z,8.90
2023-03-28T16:46:06.649Z,8.81
2023-03-28T16:48:38.485Z,8.65
2023-03-28T16:51:10.217Z,8.72
2023-03-28T16:53:40.247Z,8.63
2023-03-28T16:56:12.864Z,8.56
2023-03-28T16:58:42.719Z,8.48
2023-03-28T17:01:20.293Z,8.34
2023-03-28T17:03:54.035Z,8.27
2023-03-28T17:06:26.639Z,8.22
2023-03-28T17:08:59.067Z,8.07
2023-03-28T17:11:31.654Z,8.20
2023-03-28T17:14:03.080Z,8.11
2023-03-28T17:16:35.498Z,7.84
2023-03-28T17:19:06.888Z,7.58
2023-03-28T17:21:38.871Z,7.95
2023-03-28T17:24:12.181Z,7.83
2023-03-28T17:26:44.132Z,7.43
2023-03-28T17:29:17.272Z,7.50
2023-03-28T17:31:47.252Z,7.44
2023-03-28T17:34:18.107Z,7.31
2023-03-28T17:36:51.720Z,7.57
2023-03-28T17:39:23.900Z,7.58
2023-03-28T17:41:55.817Z,7.52
2023-03-28T17:44:27.841Z,7.14
2023-03-28T17:47:01.566Z,7.39
2023-03-28T17:49:33.881Z,6.94
2023-03-28T17:52:05.482Z,7.19
2023-03-28T17:54:36.856Z,7.17
2023-03-28T17:57:09.190Z,7.05
2023-03-28T17:59:41.230Z,7.10
2023-03-28T18:02:13.670Z,7.07
2023-03-28T18:04:47.551Z,7.14
2023-03-28T18:07:18.952Z,6.97
2023-03-28T18:09:50.609Z,6.93
2023-03-28T18:12:22.163Z,6.95
2023-03-28T18:14:54.235Z,6.94
2023-03-28T18:17:25.787Z,6.73
2023-03-28T18:19:56.776Z,6.93
2023-03-28T18:22:28.978Z,6.97
2023-03-28T18:25:01.119Z,6.82
2023-03-28T18:27:33.324Z,6.98
2023-03-28T18:30:08.091Z,6.95
2023-03-28T18:32:39.827Z,6.82
2023-03-28T18:35:12.376Z,6.91
2023-03-28T18:37:45.014Z,6.94
2023-03-28T18:40:17.872Z,6.77
2023-03-28T18:42:51.394Z,6.76
2023-03-28T18:45:24.369Z,6.72
2023-03-28T18:47:55.057Z,6.75
2023-03-28T18:50:28.518Z,6.74
2023-03-28T18:53:00.123Z,6.84
2023-03-28T18:55:31.748Z,6.41
2023-03-28T18:58:05.365Z,6.64
2023-03-28T19:00:37.772Z,6.54
2023-03-28T19:03:11.203Z,6.46
2023-03-28T19:05:41.963Z,6.45
2023-03-28T19:08:13.640Z,6.39
2023-03-28T19:10:47.906Z,6.42
2023-03-28T19:13:18.783Z,6.11
2023-03-28T19:15:58.935Z,6.26
2023-03-28T19:18:31.096Z,6.09
2023-03-28T19:21:03.540Z,6.19
2023-03-28T19:23:37.580Z,6.29
2023-03-28T19:26:11.808Z,6.14
2023-03-28T19:28:42.031Z,6.12
2023-03-28T19:31:15.560Z,6.15
2023-03-28T19:33:47.573Z,5.75
2023-03-28T19:36:19.409Z,5.90
2023-03-28T19:38:50.338Z,6.04
2023-03-28T19:41:25.670Z,6.14
2023-03-28T19:43:58.275Z,6.15
2023-03-28T19:46:34.028Z,6.09
2023-03-28T19:49:07.850Z,6.18
2023-03-28T19:51:39.552Z,6.17
2023-03-28T19:54:10.586Z,6.17
2023-03-28T19:56:42.866Z,6.00
2023-03-28T19:59:12.096Z,6.15
2023-03-28T20:01:42.913Z,6.20
2023-03-28T20:04:14.462Z,6.10
2023-03-28T20:06:46.331Z,6.24
2023-03-28T20:09:18.479Z,6.20
2023-03-28T20:11:50.949Z,6.19
2023-03-28T20:14:22.428Z,6.13
2023-03-28T20:16:54.923Z,6.12
2023-03-28T20:19:27.254Z,6.10
2023-03-28T20:21:58.946Z,5.99
2023-03-28T20:24:30.440Z,6.01
2023-03-28T20:27:01.918Z,5.94
2023-03-28T20:29:33.808Z,5.98
2023-03-28T20:32:08.011Z,5.93
2023-03-28T20:34:40.686Z,5.92
2023-03-28T20:37:15.454Z,5.84
2023-03-28T20:39:49.340Z,5.88
2023-03-28T20:42:21.044Z,5.67
2023-03-28T20:44:50.539Z,5.45
2023-03-28T20:47:23.457Z,5.54
2023-03-28T20:49:59.745Z,5.61
2023-03-28T20:52:31.402Z,5.54
2023-03-28T20:55:02.657Z,5.41
2023-03-28T20:57:41.746Z,5.38
2023-03-28T21:00:15.577Z,5.44
2023-03-28T21:02:54.560Z,5.39
2023-03-28T21:05:28.193Z,5.29
2023-03-28T21:08:00.569Z,5.33
2023-03-28T21:10:34.059Z,5.41
2023-03-28T21:13:05.717Z,5.34
2023-03-28T21:15:36.943Z,5.27
2023-03-28T21:18:10.500Z,5.39
2023-03-28T21:20:42.534Z,5.31
2023-03-28T21:23:16.993Z,5.40
2023-03-28T21:25:50.108Z,5.30
2023-03-28T21:28:21.851Z,5.12
2023-03-28T21:31:12.767Z,5.38
2023-03-28T21:33:44.853Z,5.39
2023-03-28T21:36:18.328Z,5.27
2023-03-28T21:38:50.766Z,5.23
2023-03-28T21:41:23.752Z,5.23
2023-03-28T21:43:55.900Z,5.18
2023-03-28T21:46:28.842Z,5.27
2023-03-28T21:48:59.584Z,5.02
2023-03-28T21:51:32.357Z,5.08
2023-03-28T21:54:03.576Z,5.05
2023-03-28T21:56:35.504Z,5.09
2023-03-28T21:59:08.033Z,4.95
2023-03-28T22:01:39.937Z,5.08
2023-03-28T22:04:10.876Z,5.02
2023-03-28T22:06:42.381Z,4.91
2023-03-28T22:09:13.909Z,4.65
2023-03-28T22:11:45.375Z,4.89
2023-03-28T22:14:16.930Z,4.84
2023-03-28T22:16:48.879Z,4.85
2023-03-28T22:19:21.637Z,4.73
2023-03-28T22:21:52.925Z,4.84
2023-03-28T22:24:25.393Z,4.70
2023-03-28T22:26:58.493Z,4.67
2023-03-28T22:29:29.762Z,4.72
2023-03-28T22:32:01.197Z,4.75
2023-03-28T22:34:32.425Z,4.74
2023-03-28T22:37:03.701Z,4.78
2023-03-28T22:39:35.633Z,4.50
2023-03-28T22:42:08.174Z,4.44
2023-03-28T22:44:39.767Z,4.70
2023-03-28T22:47:10.657Z,4.62
2023-03-28T22:49:42.426Z,4.60
2023-03-28T22:52:14.344Z,4.71
2023-03-28T22:54:46.138Z,4.69
2023-03-28T22:57:17.605Z,4.62
2023-03-28T22:59:51.237Z,4.75
2023-03-28T23:02:22.804Z,4.75
2023-03-28T23:04:55.182Z,4.61
2023-03-28T23:07:25.712Z,4.74
2023-03-28T23:09:56.958Z,4.60
2023-03-28T23:12:27.897Z,4.68
2023-03-28T23:14:59.777Z,4.62
2023-03-28T23:17:31.191Z,4.63
2023-03-28T23:20:03.517Z,4.65
2023-03-28T23:22:34.543Z,4.58
2023-03-28T23:25:06.183Z,4.69
2023-03-28T23:27:37.313Z,4.64
2023-03-28T23:30:10.401Z,4.68
2023-03-28T23:32:41.064Z,4.72
2023-03-28T23:35:12.145Z,4.87
2023-03-28T23:37:45.586Z,4.82
2023-03-28T23:40:16.583Z,4.97
2023-03-28T23:42:47.273Z,5.00
2023-03-28T23:45:19.607Z,4.93
2023-03-28T23:47:51.306Z,5.00
2023-03-28T23:50:23.731Z,4.94
2023-03-28T23:52:54.918Z,5.16
2023-03-28T23:55:28.032Z,4.85
2023-03-28T23:58:03.332Z,4.89
